Time;durP1;ratioP1;P1;durP2;ratioP2;P2;SDS_P1;SDS_P2;PMS_P1;PMS_P2;Temp;Humidity;BMP_temperature;BMP_pressure;BME280_temperature;BME280_humidity;BME280_pressure;Samples;Min_cycle;Max_cycle;Signal;HPM_P1;HPM_P2
2023/10/10 00:01:10;;;;;;;23.80;14.63;;;;;;;10.38;100.00;101466.97;6149549;23;20029;-84
2023/10/10 00:04:10;;;;;;;22.25;15.68;;;;;;;10.37;100.00;101466.13;6126037;23;20016;-83
2023/10/10 00:07:03;;;;;;;20.75;14.02;;;11.50;99.90;;;10.35;100.00;101467.94;6126287;23;20005;-84
2023/10/10 00:09:40;;;;;;;25.50;15.52;;;;;;;10.36;100.00;101474.91;6067507;23;20533;-84
2023/10/10 00:12:06;;;;;;;22.20;13.88;;;11.50;99.90;;;10.38;100.00;101478.38;6067589;23;20006;-85
2023/10/10 00:14:33;;;;;;;20.20;14.43;;;;;;;10.42;100.00;101472.09;6044330;23;20014;-84
2023/10/10 00:17:46;;;;;;;;;;;;;;;;;;;;;
2023/10/10 00:20:24;;;;;;;26.75;15.77;;;;;;;10.41;100.00;101456.34;6014712;23;20103;-85
2023/10/10 00:23:04;;;;;;;24.90;16.52;;;;;;;10.37;100.00;101452.13;6010198;23;20034;-85
2023/10/10 00:25:53;;;;;;;25.73;15.55;;;11.50;99.90;;;10.31;100.00;101454.94;6010363;23;20589;-84
2023/10/10 00:28:21;;;;;;;29.40;16.08;;;;;;;10.31;100.00;101452.31;6015708;23;20054;-86
2023/10/10 00:31:48;;;;;;;;;;;;;;;;;;;;;
2023/10/10 00:34:47;;;;;;;20.80;13.77;;;;;;;10.22;100.00;101445.56;6005744;23;20396;-85
2023/10/10 00:37:39;;;;;;;;;;;;;;;;;;;;;
2023/10/10 00:40:08;;;;;;;22.63;13.85;;;11.20;99.90;;;10.06;100.00;101443.44;6026568;23;20411;-85
2023/10/10 00:43:04;;;;;;;18.88;12.40;;;;;;;10.01;100.00;101442.72;6016236;23;20428;-85
2023/10/10 00:46:26;;;;;;;;;;;;;;;;;;;;;
2023/10/10 00:49:00;;;;;;;22.73;13.57;;;11.00;99.90;;;9.79;100.00;101446.97;6150278;23;20088;-86
2023/10/10 00:51:33;;;;;;;26.30;16.52;;;;;;;9.72;100.00;101433.16;6125944;23;20016;-85
2023/10/10 00:54:16;;;;;;;31.33;19.50;;;10.80;99.90;;;9.65;100.00;101440.38;6126340;23;20084;-85
2023/10/10 00:56:44;;;;;;;47.72;28.98;;;10.80;99.90;;;9.59;100.00;101444.94;6158720;23;20408;-84
2023/10/10 01:00:07;;;;;;;56.92;30.65;;;10.70;99.90;;;9.55;100.00;101438.94;6154971;23;20013;-86
2023/10/10 01:02:20;;;;;;;54.83;31.42;;;;;;;9.50;100.00;101446.09;6175075;23;20013;-84
2023/10/10 01:05:04;;;;;;;62.08;31.35;;;;;;;9.48;100.00;101445.28;6151483;23;20013;-84
2023/10/10 01:07:34;;;;;;;56.78;33.03;;;;;;;9.47;100.00;101447.97;6155981;23;20008;-86
2023/10/10 01:10:13;;;;;;;57.03;32.70;;;;;;;9.48;100.00;101445.28;6183995;22;20427;-84
2023/10/10 01:15:50;;;;;;;45.15;26.30;;;;;;;9.51;100.00;101426.78;6193557;23;20111;-84
2023/10/10 01:19:02;;;;;;;49.35;28.58;;;10.70;99.90;;;9.49;100.00;101430.38;6237765;22;20010;-85
2023/10/10 01:22:03;;;;;;;61.78;31.23;;;;;;;9.46;100.00;101433.97;6221939;23;20016;-85
2023/10/10 01:24:40;;;;;;;42.90;26.65;;;;;;;9.42;100.00;101432.34;6215618;23;20012;-85
2023/10/10 01:27:21;;;;;;;58.78;31.85;;;;;;;9.37;100.00;101426.34;6241995;22;20032;-85
2023/10/10 01:30:17;;;;;;;66.22;32.22;;;10.50;99.90;;;9.34;100.00;101418.56;6242696;22;20008;-84
2023/10/10 01:32:54;;;;;;;50.10;29.45;;;;;;;9.31;100.00;101421.25;6196828;23;20008;-84
2023/10/10 01:38:52;;;;;;;44.50;26.52;;;;;;;9.21;100.00;101405.78;6273834;22;20019;-84
2023/10/10 01:41:31;;;;;;;40.53;25.30;;;;;;;9.16;100.00;101418.22;6246701;22;20112;-84
2023/10/10 01:44:22;;;;;;;38.00;25.13;;;;;;;9.11;100.00;101422.72;6247103;22;20014;-84
2023/10/10 01:47:26;;;;;;;40.92;26.60;;;;;;;9.06;100.00;101423.78;6272762;22;20004;-84
2023/10/10 01:50:18;;;;;;;46.53;27.45;;;10.20;99.90;;;8.98;100.00;101416.09;6245134;22;20012;-85
2023/10/10 01:52:55;;;;;;;48.17;26.65;;;;;;;8.94;100.00;101414.47;6184857;23;20496;-84
2023/10/10 01:55:32;;;;;;;43.03;26.10;;;10.10;99.90;;;8.91;100.00;101409.31;6187262;23;20015;-85
2023/10/10 01:58:02;;;;;;;41.13;26.55;;;;;;;8.91;100.00;101411.94;6170797;23;20035;-84
2023/10/10 02:00:46;;;;;;;62.78;30.60;;;10.10;99.90;;;8.91;100.00;101410.16;6241526;23;20054;-84
2023/10/10 02:03:48;;;;;;;;;;;;;;;;;;;;;
2023/10/10 02:06:45;;;;;;;47.80;25.67;;;10.10;99.90;;;8.95;100.00;101410.94;6233011;23;20395;-84
2023/10/10 02:12:08;;;;;;;50.97;27.40;;;10.10;99.90;;;9.00;100.00;101411.66;6097101;23;20011;-84
2023/10/10 02:14:34;;;;;;;48.75;27.77;;;10.10;99.90;;;8.98;100.00;101416.97;6013928;23;20015;-85
2023/10/10 02:17:50;;;;;;;55.03;29.33;;;10.20;99.90;;;9.00;100.00;101414.28;6039845;23;20038;-84
2023/10/10 02:23:31;;;;;;;61.85;30.70;;;10.20;99.90;;;9.07;100.00;101420.22;5983754;23;20338;-85
2023/10/10 02:26:14;;;;;;;52.50;27.42;;;;;;;9.07;100.00;101414.97;5982406;23;20031;-83
2023/10/10 02:29:16;;;;;;;46.58;25.85;;;;;;;9.07;100.00;101410.59;5984797;23;20007;-84
2023/10/10 02:31:34;;;;;;;51.30;26.83;;;;;;;9.07;100.00;101407.97;6062794;23;20033;-84
2023/10/10 02:40:42;;;;;;;43.00;24.35;;;;;;;9.09;100.00;101419.28;6317763;22;20017;-84
2023/10/10 02:46:42;;;;;;;39.95;23.70;;;10.20;99.90;;;9.12;100.00;101424.47;6302909;22;20034;-84
2023/10/10 02:49:22;;;;;;;36.97;22.90;;;;;;;9.13;100.00;101420.91;6198580;23;20368;-85
2023/10/10 02:52:06;;;;;;;45.05;25.98;;;10.30;99.90;;;9.15;100.00;101429.59;6218933;23;20009;-84
2023/10/10 02:54:33;;;;;;;41.05;24.23;;;;;;;9.18;100.00;101423.44;6189175;23;20019;-84
2023/10/10 03:03:02;;;;;;;51.60;27.17;;;;;;;9.27;100.00;101427.53;6185199;23;20008;-85
2023/10/10 03:06:06;;;;;;;49.22;26.55;;;;;;;9.30;100.00;101435.31;6211591;23;20036;-85
2023/10/10 03:08:51;;;;;;;55.50;28.15;;;;;;;9.30;100.00;101417.78;6210479;23;20626;-84
2023/10/10 03:11:44;;;;;;;49.45;26.73;;;10.50;99.90;;;9.34;100.00;101415.94;6210279;23;20341;-85
2023/10/10 03:14:43;;;;;;;57.15;26.83;;;10.50;99.90;;;9.33;100.00;101412.44;6192224;23;20008;-84
2023/10/10 03:20:50;;;;;;;58.53;27.25;;;;;;;9.38;100.00;101409.69;6188743;23;20093;-84
2023/10/10 03:31:42;;;;;;;44.72;24.40;;;;;;;9.44;100.00;101414.75;6211267;23;20105;-85
2023/10/10 03:34:45;;;;;;;49.33;25.13;;;10.60;99.90;;;9.45;100.00;101414.69;6210535;23;20055;-85
2023/10/10 05:23:34;;;;;;;57.53;27.05;;;10.70;99.90;;;9.49;100.00;101397.06;6306764;22;20018;-84
2023/10/10 05:26:05;;;;;;;59.38;27.65;;;10.70;99.90;;;9.47;100.00;101390.97;6304811;22;20003;-83
2023/10/10 05:28:34;;;;;;;58.05;27.55;;;;;;;9.50;100.00;101397.91;6278658;22;20000;-86
2023/10/10 05:34:03;;;;;;;61.35;28.73;;;10.70;99.90;;;9.56;100.00;101410.88;6163782;23;20005;-84
2023/10/10 05:36:36;;;;;;;65.25;29.05;;;10.80;99.90;;;9.60;100.00;101412.50;6182270;23;20012;-85
2023/10/10 05:39:02;;;;;;;61.35;27.85;;;10.70;99.90;;;9.58;100.00;101409.91;6181867;23;20204;-85
2023/10/10 05:41:32;;;;;;;57.55;27.73;;;10.80;99.90;;;9.63;100.00;101405.38;6181929;23;20061;-85
2023/10/10 05:44:04;;;;;;;48.95;27.13;;;;;;;9.71;100.00;101412.16;6156543;23;20015;-83
2023/10/10 05:46:32;;;;;;;48.85;25.95;;;;;;;9.77;100.00;101406.69;6181664;23;20023;-83
2023/10/10 05:48:58;;;;;;;51.85;27.38;;;10.90;99.90;;;9.82;100.00;101410.88;6181953;23;20009;-84
2023/10/10 05:51:35;;;;;;;55.20;26.75;;;10.90;99.90;;;9.86;100.00;101420.41;6159794;23;20055;-83
2023/10/10 05:54:01;;;;;;;51.33;25.40;;;11.00;99.90;;;9.89;100.00;101415.94;6158543;23;20012;-85
2023/10/10 05:56:40;;;;;;;53.20;26.73;;;11.10;99.90;;;9.93;100.00;101423.69;6183445;23;20031;-84
2023/10/10 05:59:08;;;;;;;51.13;26.40;;;11.10;99.90;;;9.96;100.00;101428.88;6184143;23;20005;-84
2023/10/10 06:01:43;;;;;;;51.70;27.40;;;;;;;10.02;100.00;101427.78;6159005;23;20820;-83
2023/10/10 06:04:11;;;;;;;55.75;27.40;;;11.20;99.90;;;10.05;100.00;101425.91;6183579;23;20013;-85
2023/10/10 06:06:46;;;;;;;49.85;26.13;;;;;;;10.10;100.00;101431.03;6183180;23;20043;-83
2023/10/10 06:09:18;;;;;;;51.53;25.27;;;11.20;99.90;;;10.11;100.00;101438.03;6183570;23;20009;-83
2023/10/10 06:11:54;;;;;;;44.90;25.25;;;;;;;10.13;100.00;101443.22;6238569;22;20150;-84
2023/10/10 06:14:32;;;;;;;52.20;25.63;;;11.30;99.90;;;10.17;100.00;101436.94;6279487;22;20550;-83
2023/10/10 06:16:59;;;;;;;49.88;25.30;;;;;;;10.20;100.00;101444.75;6254925;22;20145;-85
2023/10/10 06:19:34;;;;;;;54.67;25.73;;;;;;;10.22;100.00;101435.88;6281104;22;20017;-85
2023/10/10 06:22:02;;;;;;;51.63;25.43;;;;;;;10.25;100.00;101450.72;6280271;22;20007;-85
2023/10/10 06:24:38;;;;;;;48.10;25.25;;;11.40;99.90;;;10.28;100.00;101445.34;6280161;22;20089;-85
2023/10/10 06:27:04;;;;;;;49.78;25.58;;;11.40;99.90;;;10.29;100.00;101441.84;6311539;22;20175;-83
2023/10/10 06:29:40;;;;;;;;;;;;;;;;;;;;;
2023/10/10 06:32:15;;;;;;;48.88;25.25;;;11.40;99.90;;;10.32;100.00;101446.97;6309437;22;20059;-85
2023/10/10 06:34:49;;;;;;;50.38;25.38;;;;;;;10.34;100.00;101449.56;6283811;22;20011;-85
2023/10/10 06:37:27;;;;;;;43.85;24.42;;;;;;;10.37;100.00;101445.06;6306196;22;20037;-83
2023/10/10 06:40:11;;;;;;;50.55;25.38;;;;;;;10.40;100.00;101447.59;6307785;22;20510;-84
2023/10/10 06:42:47;;;;;;;48.20;23.90;;;;;;;10.44;100.00;101443.09;6308929;22;20409;-85
2023/10/10 06:45:21;;;;;;;47.80;25.10;;;11.50;99.90;;;10.46;100.00;101451.78;6306121;22;20038;-85
2023/10/10 06:47:52;;;;;;;49.33;24.27;;;11.50;99.90;;;10.46;100.00;101450.00;6283600;22;20417;-83
2023/10/10 06:50:24;;;;;;;44.30;24.23;;;;;;;10.49;100.00;101454.31;6281690;22;20082;-85
2023/10/10 06:52:53;;;;;;;42.08;24.23;;;11.60;99.90;;;10.50;100.00;101456.03;6307276;22;20082;-83
2023/10/10 06:55:47;;;;;;;44.85;24.80;;;;;;;10.54;100.00;101455.03;6307308;22;20003;-85
2023/10/10 06:58:14;;;;;;;47.00;23.80;;;;;;;10.56;100.00;101454.94;6307388;22;20015;-84
2023/10/10 07:00:44;;;;;;;41.97;24.27;;;;;;;10.58;100.00;101455.75;6309006;22;20502;-85
2023/10/10 07:03:19;;;;;;;42.15;24.27;;;;;;;10.64;100.00;101455.53;6306436;22;20011;-84
2023/10/10 07:06:11;;;;;;;47.03;25.73;;;11.80;99.90;;;10.72;100.00;101461.41;6308921;22;20007;-83
2023/10/10 07:08:37;;;;;;;46.00;24.67;;;11.90;99.90;;;10.80;100.00;101462.00;6307276;22;20010;-83
2023/10/10 07:11:03;;;;;;;41.40;22.85;;;;;;;10.93;100.00;101474.72;6281157;22;20343;-85
2023/10/10 07:13:29;;;;;;;41.75;22.85;;;;;;;11.00;100.00;101463.06;6306324;22;20014;-85
2023/10/10 07:16:08;;;;;;;43.20;24.02;;;12.10;99.90;;;11.02;100.00;101458.59;6306330;22;20356;-83
2023/10/10 07:18:34;;;;;;;38.63;22.05;;;12.10;99.90;;;11.11;100.00;101465.31;6282412;22;20018;-83
2023/10/10 07:24:40;;;;;;;43.88;23.30;;;;;;;11.26;100.00;101465.56;6166147;23;20012;-83
2023/10/10 07:27:11;;;;;;;34.83;21.60;;;12.40;99.90;;;11.31;100.00;101462.75;6182844;23;20059;-83
2023/10/10 07:32:38;;;;;;;36.72;21.45;;;12.50;99.90;;;11.44;100.00;101471.06;6186510;23;20013;-85
2023/10/10 07:35:05;;;;;;;34.05;19.58;;;12.50;99.90;;;11.51;100.00;101469.91;6183851;23;20013;-83
2023/10/10 07:37:41;;;;;;;35.80;19.58;;;;;;;11.57;100.00;101464.38;6183914;23;20001;-85
2023/10/10 07:40:19;;;;;;;;;;;12.70;99.90;;;11.62;100.00;101467.72;6183326;23;20016;-84
2023/10/10 07:45:45;;;;;;;34.90;19.08;;;12.80;99.90;;;11.68;100.00;101454.31;6187833;23;20576;-83
2023/10/10 07:51:27;;;;;;;32.60;18.25;;;;;;;11.83;100.00;101460.72;6124128;23;20682;-82
2023/10/10 07:54:12;;;;;;;31.35;17.55;;;;;;;11.94;100.00;101462.09;6122651;23;20010;-83
2023/10/10 07:56:55;;;;;;;31.42;16.75;;;;;;;12.00;100.00;101462.72;6211389;23;20479;-85
2023/10/10 07:59:21;;;;;;;32.42;17.95;;;;;;;12.09;100.00;101466.75;6213695;23;20070;-85
2023/10/10 08:01:57;;;;;;;31.77;16.90;;;13.20;99.90;;;12.16;100.00;101468.25;6212787;23;20204;-85
2023/10/10 08:04:25;;;;;;;26.95;15.60;;;;;;;12.21;100.00;101458.34;6187456;23;20001;-84
2023/10/10 08:07:03;;;;;;;26.33;15.40;;;;;;;12.25;100.00;101464.34;6211301;23;20436;-85
2023/10/10 08:09:29;;;;;;;29.45;16.17;;;13.30;99.90;;;12.27;100.00;101462.50;6211729;23;20068;-85
2023/10/10 08:12:04;;;;;;;26.77;16.55;;;13.40;99.90;;;12.29;100.00;101465.94;6212345;23;20071;-83
2023/10/10 08:14:31;;;;;;;27.70;15.70;;;;;;;12.28;100.00;101462.44;6212438;23;20016;-84
2023/10/10 08:17:02;;;;;;;26.60;15.98;;;13.40;99.90;;;12.28;100.00;101470.34;6212513;23;20471;-84
2023/10/10 08:19:34;;;;;;;25.10;14.82;;;;;;;12.25;100.00;101469.63;6213026;23;20016;-85
2023/10/10 08:22:12;;;;;;;24.00;14.93;;;13.30;99.90;;;12.21;100.00;101471.53;6212177;23;20062;-85
2023/10/10 08:24:43;;;;;;;23.73;14.70;;;13.30;99.90;;;12.23;100.00;101469.69;6212346;23;20028;-85
2023/10/10 08:27:27;;;;;;;;;;;;;;;;;;;;;
2023/10/10 08:29:59;;;;;;;26.08;15.48;;;13.30;99.90;;;12.23;100.00;101477.63;6308699;22;20031;-85
2023/10/10 08:32:26;;;;;;;24.65;15.20;;;13.30;99.90;;;12.27;100.00;101470.44;6278950;22;20054;-84
2023/10/10 08:35:04;;;;;;;28.08;15.73;;;;;;;12.26;100.00;101466.06;6281071;22;20007;-85
2023/10/10 08:37:39;;;;;;;24.98;15.07;;;13.40;99.90;;;12.24;100.00;101465.25;6307048;22;20003;-84
2023/10/10 08:40:17;;;;;;;26.83;16.13;;;13.40;99.90;;;12.28;100.00;101465.06;6282279;22;20354;-83
2023/10/10 08:43:03;;;;;;;27.92;16.33;;;13.40;99.90;;;12.36;100.00;101469.19;6283948;22;20013;-85
2023/10/10 08:45:56;;;;;;;27.27;14.95;;;13.40;99.90;;;12.44;100.00;101469.69;6283198;22;20426;-85
2023/10/10 08:48:26;;;;;;;29.73;16.45;;;;;;;12.44;100.00;101467.06;6158102;23;20534;-83
2023/10/10 08:51:25;;;;;;;;;;;;;;;;;;;;;
2023/10/10 08:54:17;;;;;;;25.05;14.75;;;13.50;99.90;;;12.52;100.00;101475.53;6152405;23;20091;-85
2023/10/10 08:57:24;;;;;;;25.70;15.13;;;;;;;12.54;100.00;101475.47;6153099;23;20013;-84
2023/10/10 08:59:52;;;;;;;24.40;15.45;;;13.60;99.90;;;12.57;100.00;101475.31;6152349;23;20013;-84
2023/10/10 09:02:33;;;;;;;24.85;15.52;;;;;;;12.60;100.00;101480.50;6128286;23;20041;-85
2023/10/10 09:05:14;;;;;;;24.63;15.02;;;13.70;99.90;;;12.59;100.00;101473.47;6127184;23;20092;-85
2023/10/10 09:08:14;;;;;;;25.20;16.27;;;13.70;99.90;;;12.62;100.00;101482.13;6126515;23;20005;-83
2023/10/10 09:10:48;;;;;;;26.08;15.52;;;;;;;12.61;100.00;101480.44;6285593;22;20030;-85
2023/10/10 09:13:16;;;;;;;26.63;16.67;;;;;;;12.62;99.95;101482.13;6362398;22;20102;-83
2023/10/10 09:16:13;;;;;;;27.95;16.33;;;13.70;99.90;;;12.62;100.00;101473.34;6336776;22;20443;-84
2023/10/10 09:19:08;;;;;;;26.50;16.00;;;;;;;12.60;100.00;101481.34;6279289;22;20007;-85
2023/10/10 09:21:50;;;;;;;25.70;16.13;;;13.70;99.90;;;12.62;100.00;101482.13;6270944;22;20019;-84
2023/10/10 09:24:33;;;;;;;29.60;15.93;;;13.70;99.90;;;12.63;100.00;101475.06;6222471;22;20031;-83
2023/10/10 09:27:35;;;;;;;24.60;15.15;;;;;;;12.68;100.00;101478.38;6250342;22;20011;-84
2023/10/10 09:31:12;;;;;;;24.13;14.98;;;13.80;99.90;;;12.75;100.00;101490.38;6305218;22;20201;-84
2023/10/10 09:33:45;;;;;;;27.52;15.15;;;;;;;12.84;100.00;101478.56;6186672;23;20019;-84
2023/10/10 09:39:37;;;;;;;23.20;14.63;;;;;;;12.95;100.00;101486.00;6152212;23;20048;-85
2023/10/10 09:54:18;;;;;;;26.02;15.45;;;;;;;13.19;97.94;101469.03;6337637;22;20446;-83
2023/10/10 09:56:56;;;;;;;25.95;15.55;;;;;;;13.24;97.64;101468.81;6335753;22;20042;-84
2023/10/10 09:59:28;;;;;;;26.58;15.77;;;14.30;99.90;;;13.27;97.19;101466.06;6338692;22;20034;-84
2023/10/10 10:02:04;;;;;;;27.13;15.98;;;;;;;13.34;97.06;101475.44;6312481;22;20192;-84
2023/10/10 10:04:41;;;;;;;26.55;16.35;;;14.40;99.90;;;13.41;96.92;101468.06;6332468;22;20007;-83
2023/10/10 10:07:56;;;;;;;30.38;16.02;;;14.50;99.90;;;13.45;96.42;101470.50;6304963;22;20010;-83
2023/10/10 10:10:48;;;;;;;24.15;15.60;;;14.50;99.90;;;13.50;95.71;101486.19;6330076;22;20026;-85
2023/10/10 10:17:18;;;;;;;22.13;14.25;;;14.60;99.90;;;13.57;95.27;101478.81;6243139;23;20031;-85
2023/10/10 10:20:23;;;;;;;19.15;13.32;;;14.70;99.90;;;13.68;94.90;101487.09;6221317;23;20379;-84
2023/10/10 10:22:53;;;;;;;23.40;14.35;;;14.80;99.90;;;13.78;94.76;101483.09;6151600;23;20013;-84
2023/10/10 10:25:48;;;;;;;23.88;14.18;;;14.90;99.90;;;13.87;94.17;101487.09;6094025;23;20017;-84
2023/10/10 10:32:07;;;;;;;21.48;13.60;;;15.10;99.90;;;14.00;93.04;101477.59;5980477;23;20383;-84
2023/10/10 10:34:37;;;;;;;18.20;10.52;;;15.10;99.90;;;13.99;92.64;101481.16;5923051;24;20016;-84
2023/10/10 10:37:44;;;;;;;18.05;10.27;;;;;;;13.99;92.16;101491.75;5900268;24;20006;-83
2023/10/10 10:43:38;;;;;;;17.40;11.07;;;14.90;99.90;;;13.74;92.71;101477.06;5791841;24;20011;-80
2023/10/10 10:46:31;;;;;;;16.63;11.93;;;14.80;99.90;;;13.73;93.47;101490.38;5788694;24;20018;-81
2023/10/10 10:49:05;;;;;;;22.65;11.57;;;14.80;99.90;;;13.66;93.71;101476.56;5770634;24;20034;-80
2023/10/10 10:51:41;;;;;;;19.27;10.80;;;14.70;99.90;;;13.65;94.13;101481.94;5767152;24;20019;-81
2023/10/10 10:57:03;;;;;;;16.70;10.00;;;14.80;99.90;;;13.73;94.51;101493.03;5815672;24;20072;-81
2023/10/10 10:59:36;;;;;;;14.80;9.68;;;14.80;99.90;;;13.84;94.53;101481.91;5837988;24;20155;-81
2023/10/10 11:02:30;;;;;;;15.00;9.60;;;14.90;99.90;;;13.95;94.46;101475.19;5873880;24;20105;-81
2023/10/10 11:04:59;;;;;;;14.02;8.35;;;15.10;99.90;;;14.14;94.10;101467.16;5885896;24;20010;-81
2023/10/10 11:07:41;;;;;;;9.32;6.53;;;15.20;99.90;;;14.30;93.69;101469.09;5914560;24;20067;-80
2023/10/10 11:10:35;;;;;;;10.82;6.00;;;15.40;99.90;;;14.46;92.30;101461.19;5974132;24;20365;-80
2023/10/10 11:13:07;;;;;;;11.65;6.60;;;15.50;99.90;;;14.60;91.22;101469.34;6064009;23;20071;-81
2023/10/10 11:15:38;;;;;;;6.32;4.85;;;15.60;99.90;;;14.67;90.18;101464.56;6086433;23;20090;-80
2023/10/10 11:21:08;;;;;;;5.32;3.88;;;15.70;99.90;;;14.69;88.67;101452.09;6315488;22;20474;-80
2023/10/10 11:23:41;;;;;;;5.50;3.10;;;15.70;99.90;;;14.68;87.25;101451.22;6337955;22;20499;-81
2023/10/10 11:26:14;;;;;;;4.03;3.08;;;15.70;99.90;;;14.74;87.97;101442.09;6311266;22;19999;-81
2023/10/10 11:28:55;;;;;;;6.55;4.80;;;15.80;99.90;;;14.73;88.83;101446.56;6309619;22;20003;-81
2023/10/10 11:31:29;;;;;;;6.60;4.93;;;15.80;99.90;;;14.73;88.91;101443.91;6313726;22;20383;-81
2023/10/10 11:34:10;;;;;;;7.53;5.13;;;15.70;99.90;;;14.67;88.55;101435.41;6335562;22;20007;-80
2023/10/10 11:36:39;;;;;;;8.63;5.07;;;15.70;99.90;;;14.56;87.85;101434.19;6312208;22;20002;-81
2023/10/10 11:39:33;;;;;;;10.27;5.35;;;15.60;99.90;;;14.42;88.21;101436.66;6309911;22;20011;-81
2023/10/10 11:42:04;;;;;;;5.70;4.35;;;15.50;99.90;;;14.46;88.39;101430.25;6311085;22;20007;-81
2023/10/10 11:44:33;;;;;;;9.55;3.63;;;15.50;99.90;;;14.47;88.32;101417.84;6311774;22;20056;-78
2023/10/10 11:47:07;;;;;;;4.30;3.45;;;15.50;99.90;;;14.51;87.71;101420.28;6313278;22;20034;-77
2023/10/10 11:49:36;;;;;;;6.43;3.88;;;15.50;99.90;;;14.53;86.74;101415.75;6338817;22;20006;-77
2023/10/10 11:52:05;;;;;;;4.82;3.35;;;15.60;99.90;;;14.61;86.92;101411.88;6339135;22;20007;-77
2023/10/10 11:54:31;;;;;;;5.35;3.05;;;15.60;99.90;;;14.69;86.77;101418.50;6339587;22;20006;-77
2023/10/10 11:56:57;;;;;;;4.78;2.92;;;15.70;99.90;;;14.79;85.63;101412.69;6313823;22;20007;-78
2023/10/10 11:59:23;;;;;;;5.47;3.05;;;15.80;99.90;;;14.89;84.94;101414.78;6314577;22;20017;-78
2023/10/10 12:01:54;;;;;;;5.20;3.75;;;15.80;99.90;;;15.04;84.27;101412.25;6341137;22;20002;-77
2023/10/10 12:04:32;;;;;;;3.75;2.75;;;16.00;99.90;;;15.18;84.45;101414.97;6342019;22;20465;-78
2023/10/10 12:07:04;;;;;;;3.42;2.80;;;16.10;99.90;;;15.32;83.56;101422.19;6339223;22;20500;-78
2023/10/10 12:09:30;;;;;;;5.13;3.33;;;16.20;99.90;;;15.39;82.48;101413.78;6339307;22;20486;-78
2023/10/10 12:11:59;;;;;;;4.80;3.28;;;16.30;99.90;;;15.52;81.79;101413.09;6313703;22;20006;-78
2023/10/10 12:14:34;;;;;;;5.55;3.42;;;16.40;99.90;;;15.62;80.75;101414.31;6339276;22;20030;-78
2023/10/10 12:17:05;;;;;;;5.05;3.65;;;16.50;99.90;;;15.70;80.37;101419.16;6313500;22;20009;-77
2023/10/10 12:19:36;;;;;;;6.88;4.07;;;16.60;99.90;;;15.75;80.93;101425.13;6339147;22;20109;-77
2023/10/10 12:22:08;;;;;;;4.88;3.55;;;16.60;99.90;;;15.76;80.93;101417.03;6314453;22;20044;-78
2023/10/10 12:24:35;;;;;;;4.25;3.42;;;16.70;99.90;;;15.85;80.83;101422.78;6314198;22;19998;-77
2023/10/10 12:27:03;;;;;;;4.95;3.70;;;16.80;99.90;;;15.96;80.50;101412.38;6337598;22;20052;-77
2023/10/10 12:29:31;;;;;;;6.00;3.95;;;16.90;99.90;;;16.07;80.34;101415.28;6339820;22;20002;-77
2023/10/10 12:31:57;;;;;;;5.65;4.35;;;17.00;99.90;;;16.16;79.41;101404.09;6339103;22;20014;-77
2023/10/10 12:34:23;;;;;;;4.85;3.72;;;17.10;99.90;;;16.25;79.42;101410.66;6337646;22;20014;-77
2023/10/10 12:36:59;;;;;;;4.78;3.90;;;17.20;99.90;;;16.36;79.14;101410.03;6338496;22;20026;-78
2023/10/10 12:39:27;;;;;;;4.90;4.07;;;17.30;99.90;;;16.40;79.00;101408.91;6338802;22;20375;-78
2023/10/10 12:41:56;;;;;;;6.25;3.80;;;17.30;99.90;;;16.45;78.92;101404.16;6340225;22;20275;-78
2023/10/10 12:44:27;;;;;;;5.05;3.80;;;17.30;99.90;;;16.46;78.90;101395.25;6338736;22;20010;-77
2023/10/10 12:46:58;;;;;;;4.90;3.88;;;17.30;99.90;;;16.46;78.07;101405.88;6313403;22;20011;-78
2023/10/10 12:49:32;;;;;;;6.63;4.60;;;17.30;99.90;;;16.37;77.40;101401.97;6315079;22;19999;-77
2023/10/10 12:52:01;;;;;;;7.55;3.78;;;17.30;99.90;;;16.31;77.86;101391.72;6314578;22;20035;-77
2023/10/10 12:54:34;;;;;;;4.07;3.40;;;17.20;99.90;;;16.30;78.28;101389.13;6339083;22;20010;-77
2023/10/10 12:57:06;;;;;;;5.53;3.60;;;17.20;99.90;;;16.35;78.59;101384.41;6337820;22;20010;-78
2023/10/10 12:59:46;;;;;;;4.13;3.22;;;17.20;99.90;;;16.33;75.70;101378.34;6316909;22;20393;-78
2023/10/10 13:02:15;;;;;;;5.07;3.45;;;17.20;99.90;;;16.26;75.25;101383.13;6341729;22;20003;-78
2023/10/10 13:04:46;;;;;;;6.80;3.58;;;17.20;99.90;;;16.24;75.94;101386.84;6341619;22;20006;-78
2023/10/10 13:07:15;;;;;;;5.07;3.63;;;17.10;99.90;;;16.22;77.34;101378.97;6315104;22;20006;-78
2023/10/10 13:09:43;;;;;;;4.70;3.58;;;17.20;99.90;;;16.26;78.18;101375.16;6341398;22;20025;-78
2023/10/10 13:12:12;;;;;;;5.63;4.15;;;17.20;99.90;;;16.29;77.39;101380.31;6342629;22;20328;-78
2023/10/10 13:14:50;;;;;;;5.53;3.88;;;17.20;99.90;;;16.26;76.18;101372.50;6341707;22;19999;-77
2023/10/10 13:19:58;;;;;;;6.65;3.47;;;17.20;99.90;;;16.23;74.61;101385.16;6342875;22;20022;-78
2023/10/10 13:22:24;;;;;;;4.78;3.90;;;17.20;99.90;;;16.19;75.56;101384.47;6342188;22;20013;-78
2023/10/10 13:24:50;;;;;;;4.80;3.47;;;17.10;99.90;;;16.05;75.86;101382.63;6340991;22;20543;-77
2023/10/10 13:27:17;;;;;;;5.22;3.53;;;17.00;99.90;;;15.98;75.76;101375.97;6316124;22;20007;-77
2023/10/10 13:29:45;;;;;;;5.25;3.75;;;16.90;99.90;;;15.91;75.98;101364.00;6341873;22;20393;-77
2023/10/10 13:32:11;;;;;;;4.22;3.42;;;17.00;99.90;;;15.93;77.24;101356.78;6341130;22;20007;-78
2023/10/10 13:34:37;;;;;;;4.50;4.03;;;17.00;99.90;;;16.02;76.76;101358.06;6341978;22;20063;-78
2023/10/10 13:37:07;;;;;;;4.10;3.25;;;17.00;99.90;;;16.06;76.30;101365.75;6341858;22;20009;-77
2023/10/10 13:39:43;;;;;;;4.75;2.90;;;17.00;99.90;;;16.13;75.92;101355.59;6340943;22;20014;-77
2023/10/10 13:42:09;;;;;;;;;;;17.10;99.90;;;16.09;74.85;101367.34;6317318;22;20018;-77
2023/10/10 13:44:35;;;;;;;7.32;3.53;;;17.10;99.90;;;16.15;75.98;101356.38;6315505;22;19932;-77
2023/10/10 13:47:08;;;;;;;5.38;3.80;;;17.20;99.90;;;16.16;76.16;101350.97;6340526;22;20003;-78
2023/10/10 13:49:44;;;;;;;5.95;3.83;;;17.20;99.90;;;16.14;76.22;101352.88;6317077;22;20048;-77
2023/10/10 13:52:16;;;;;;;4.85;3.70;;;17.10;99.90;;;16.07;76.38;101350.66;6316739;22;20063;-77
2023/10/10 13:54:41;;;;;;;5.10;3.75;;;17.00;99.90;;;16.00;76.03;101352.81;6341835;22;19999;-78
2023/10/10 13:57:07;;;;;;;5.65;3.47;;;17.00;99.90;;;15.99;77.19;101356.44;6313843;22;20014;-77
2023/10/10 13:59:33;;;;;;;8.85;3.88;;;17.00;99.90;;;15.98;77.81;101349.41;6340600;22;20002;-77
2023/10/10 14:02:03;;;;;;;5.50;4.03;;;16.90;99.90;;;15.91;77.05;101346.25;6342015;22;20052;-78
2023/10/10 14:04:45;;;;;;;4.65;3.47;;;16.90;99.90;;;15.92;77.72;101337.34;6340807;22;20369;-78
2023/10/10 14:07:14;;;;;;;7.57;3.97;;;16.90;99.90;;;15.90;78.73;101338.41;6341955;22;20005;-78
2023/10/10 14:09:40;;;;;;;5.82;3.60;;;16.90;99.90;;;15.90;78.96;101311.84;6340274;22;20037;-78
2023/10/10 14:12:19;;;;;;;5.00;3.92;;;16.90;99.90;;;15.96;79.56;101319.41;6339557;22;20507;-77
2023/10/10 14:14:46;;;;;;;4.85;4.03;;;17.00;99.90;;;16.02;79.76;101318.22;6340939;22;20006;-78
2023/10/10 14:17:14;;;;;;;6.15;4.47;;;17.00;99.90;;;16.07;79.98;101322.31;6339597;22;20090;-78
2023/10/10 14:19:40;;;;;;;8.32;4.40;;;17.00;99.90;;;16.08;79.85;101320.50;6340768;22;20011;-78
2023/10/10 14:22:10;;;;;;;5.30;3.63;;;17.10;99.90;;;16.09;79.97;101325.72;6338877;22;20007;-78
2023/10/10 14:24:37;;;;;;;4.50;3.45;;;17.10;99.90;;;16.13;80.43;101318.41;6339902;22;19999;-77
2023/10/10 14:27:02;;;;;;;31.70;10.32;;;17.10;99.90;;;16.17;80.66;101312.81;6313230;22;20011;-77
2023/10/10 14:29:40;;;;;;;4.80;3.60;;;17.10;99.90;;;16.17;80.07;101314.63;6313972;22;20022;-78
2023/10/10 14:32:10;;;;;;;3.88;3.00;;;17.20;99.90;;;16.16;80.54;101305.81;6340394;22;20438;-77
2023/10/10 14:34:38;;;;;;;9.73;3.80;;;17.10;99.90;;;16.17;80.32;101288.06;6340100;22;20754;-77